<?xml version='1.0' encoding='UTF-8'?><gpx version="1.1" creator="JPX - https://github.com/jenetics/jpx" xmlns="http://www.topografix.com/GPX/1/1"><trk><trkseg><trkpt lat="43.2990235192068" lon="10.87598860426298"><ele>341.0</ele><time>2026-03-26T17:27:59Z</time></trkpt><trkpt lat="43.299084357260455" lon="10.87601713643857"><ele>341.0</ele><time>2026-03-26T17:28:06Z</time></trkpt><trkpt lat="43.29915564233054" lon="10.875998409394333"><ele>341.0</ele><time>2026-03-26T17:28:14Z</time></trkpt><trkpt lat="43.29921918580995" lon="10.875971162572752"><ele>341.0</ele><time>2026-03-26T17:28:20Z</time></trkpt><trkpt lat="43.29920082648453" lon="10.876061401436148"><ele>341.0</ele><time>2026-03-26T17:28:26Z</time></trkpt><trkpt lat="43.29916243016172" lon="10.87614681406008"><ele>341.0</ele><time>2026-03-26T17:28:32Z</time></trkpt><trkpt lat="43.2990971230395" lon="10.87613658061498"><ele>341.0</ele><time>2026-03-26T17:28:37Z</time></trkpt><trkpt lat="43.299032257385996" lon="10.87614617501206"><ele>341.0</ele><time>2026-03-26T17:28:57.001Z</time></trkpt><trkpt lat="43.29897159000767" lon="10.87620019289585"><ele>341.0</ele><time>2026-03-26T17:29:03.001Z</time></trkpt><trkpt lat="43.298909744481705" lon="10.876218008445035"><ele>341.0</ele><time>2026-03-26T17:29:08.001Z</time></trkpt><trkpt lat="43.29885754131359" lon="10.876282012109021"><ele>341.0</ele><time>2026-03-26T17:29:12.001Z</time></trkpt><trkpt lat="43.29879893583714" lon="10.876337507472792"><ele>341.0</ele><time>2026-03-26T17:29:21.001Z</time></trkpt><trkpt lat="43.298736302799746" lon="10.876380942863813"><ele>341.0</ele><time>2026-03-26T17:29:25.001Z</time></trkpt><trkpt lat="43.2986863136679" lon="10.876459375534019"><ele>341.0</ele><time>2026-03-26T17:29:30.001Z</time></trkpt><trkpt lat="43.298677984012734" lon="10.876550255103984"><ele>340.57142857142856</ele><time>2026-03-26T17:29:34.001Z</time></trkpt><trkpt lat="43.298660367838956" lon="10.876635841979754"><ele>340.14285714285717</ele><time>2026-03-26T17:29:38.001Z</time></trkpt><trkpt lat="43.29866251493549" lon="10.876728817724384"><ele>339.7142857142857</ele><time>2026-03-26T17:29:42.001Z</time></trkpt><trkpt lat="43.29868220787543" lon="10.876826426534093"><ele>339.2857142857143</ele><time>2026-03-26T17:29:47.001Z</time></trkpt><trkpt lat="43.29870617245998" lon="10.876907467080368"><ele>338.85714285714283</ele><time>2026-03-26T17:29:51.001Z</time></trkpt><trkpt lat="43.29874345875041" lon="10.876998616981341"><ele>338.42857142857144</ele><time>2026-03-26T17:29:56.001Z</time></trkpt><trkpt lat="43.29878608450591" lon="10.877071380079812"><ele>338.0</ele><time>2026-03-26T17:30:01.001Z</time></trkpt><trkpt lat="43.29882750062111" lon="10.877004679312508"><ele>338.0</ele><time>2026-03-26T17:30:06.001Z</time></trkpt><trkpt lat="43.298894069288735" lon="10.876966874902534"><ele>338.0</ele><time>2026-03-26T17:30:09.001Z</time></trkpt><trkpt lat="43.298972904532285" lon="10.876977442128572"><ele>338.0</ele><time>2026-03-26T17:30:14.001Z</time></trkpt><trkpt lat="43.299031700516075" lon="10.877028841159705"><ele>338.0</ele><time>2026-03-26T17:30:20.001Z</time></trkpt><trkpt lat="43.299098584487865" lon="10.877032709452479"><ele>338.0</ele><time>2026-03-26T17:30:25.001Z</time></trkpt><trkpt lat="43.299157629773724" lon="10.876968339000756"><ele>338.0</ele><time>2026-03-26T17:30:30.001Z</time></trkpt><trkpt lat="43.299216638873055" lon="10.876925635382937"><ele>338.0</ele><time>2026-03-26T17:30:35.001Z</time></trkpt><trkpt lat="43.29926627057732" lon="10.876987682671658"><ele>336.2857142857143</ele><time>2026-03-26T17:30:40.001Z</time></trkpt><trkpt lat="43.2992850981676" lon="10.877072111817055"><ele>334.57142857142856</ele><time>2026-03-26T17:30:45.001Z</time></trkpt><trkpt lat="43.299310869510514" lon="10.877168577763278"><ele>332.8571428571429</ele><time>2026-03-26T17:30:50.001Z</time></trkpt><trkpt lat="43.29932605846289" lon="10.877259766316012"><ele>331.1428571428571</ele><time>2026-03-26T17:30:56.001Z</time></trkpt><trkpt lat="43.29934006192629" lon="10.877349820059823"><ele>329.4285714285714</ele><time>2026-03-26T17:31:01.001Z</time></trkpt><trkpt lat="43.29935593685909" lon="10.877436946370768"><ele>327.7142857142857</ele><time>2026-03-26T17:31:07.001Z</time></trkpt><trkpt lat="43.29933035763333" lon="10.877526106019953"><ele>326.0</ele><time>2026-03-26T17:31:13.001Z</time></trkpt><trkpt lat="43.29926394848196" lon="10.87756719661872"><ele>326.0</ele><time>2026-03-26T17:31:19.001Z</time></trkpt><trkpt lat="43.29920272506768" lon="10.877588595912412"><ele>326.0</ele><time>2026-03-26T17:31:24.001Z</time></trkpt><trkpt lat="43.29914006193407" lon="10.877575131494993"><ele>326.0</ele><time>2026-03-26T17:31:29.001Z</time></trkpt><trkpt lat="43.29907301051275" lon="10.877575030592425"><ele>326.0</ele><time>2026-03-26T17:31:34.001Z</time></trkpt><trkpt lat="43.29907545419608" lon="10.877687116479688"><ele>326.0</ele><time>2026-03-26T17:31:38.001Z</time></trkpt><trkpt lat="43.299139839750175" lon="10.877750374490729"><ele>326.0</ele><time>2026-03-26T17:31:42.001Z</time></trkpt><trkpt lat="43.29920558553113" lon="10.877769494081884"><ele>326.0</ele><time>2026-03-26T17:31:46.001Z</time></trkpt><trkpt lat="43.29927347924272" lon="10.877777272486744"><ele>324.0</ele><time>2026-03-26T17:31:52.001Z</time></trkpt><trkpt lat="43.299239251717474" lon="10.877870706930398"><ele>322.0</ele><time>2026-03-26T17:31:57.001Z</time></trkpt><trkpt lat="43.29916618987471" lon="10.877853805881998"><ele>320.0</ele><time>2026-03-26T17:32:00.001Z</time></trkpt><trkpt lat="43.29910726818238" lon="10.877817707886168"><ele>318.0</ele><time>2026-03-26T17:32:03.001Z</time></trkpt><trkpt lat="43.299043904041675" lon="10.877803131247521"><ele>316.0</ele><time>2026-03-26T17:32:07.002Z</time></trkpt><trkpt lat="43.299030701377916" lon="10.877893059849736"><ele>314.0</ele><time>2026-03-26T17:32:10.002Z</time></trkpt><trkpt lat="43.29909606444909" lon="10.877964609095557"><ele>312.0</ele><time>2026-03-26T17:32:13.002Z</time></trkpt><trkpt lat="43.29915916498462" lon="10.87800664094752"><ele>312.0</ele><time>2026-03-26T17:32:17.001Z</time></trkpt><trkpt lat="43.29923147262793" lon="10.877993348112065"><ele>312.0</ele><time>2026-03-26T17:32:22.001Z</time></trkpt><trkpt lat="43.299167235018395" lon="10.877999444156425"><ele>312.0</ele><time>2026-03-26T17:32:37.001Z</time></trkpt><trkpt lat="43.299097052634885" lon="10.878012428845674"><ele>312.0</ele><time>2026-03-26T17:32:52.001Z</time></trkpt><trkpt lat="43.29906593173891" lon="10.878099454115372"><ele>312.0</ele><time>2026-03-26T17:32:56.001Z</time></trkpt><trkpt lat="43.29900686198438" lon="10.878219726215095"><ele>312.0</ele><time>2026-03-26T17:33:10.001Z</time></trkpt><trkpt lat="43.29899350593016" lon="10.878314254235033"><ele>312.0</ele><time>2026-03-26T17:33:17.001Z</time></trkpt><trkpt lat="43.298975560275714" lon="10.878420621614875"><ele>312.0</ele><time>2026-03-26T17:33:23.001Z</time></trkpt><trkpt lat="43.29896852804673" lon="10.878525052441033"><ele>312.0</ele><time>2026-03-26T17:33:28.001Z</time></trkpt><trkpt lat="43.29899821768565" lon="10.878603908402727"><ele>312.0</ele><time>2026-03-26T17:33:33.001Z</time></trkpt><trkpt lat="43.29905578641165" lon="10.878652797074187"><ele>312.0</ele><time>2026-03-26T17:33:45.001Z</time></trkpt><trkpt lat="43.29912733652563" lon="10.878666149487332"><ele>312.0</ele><time>2026-03-26T17:33:54.001Z</time></trkpt><trkpt lat="43.29919785122163" lon="10.878682133687695"><ele>312.0</ele><time>2026-03-26T17:33:59.001Z</time></trkpt><trkpt lat="43.29926425718664" lon="10.878682042176413"><ele>309.8571428571429</ele><time>2026-03-26T17:34:03.001Z</time></trkpt><trkpt lat="43.29932531764317" lon="10.878660589355988"><ele>307.71428571428567</ele><time>2026-03-26T17:34:07.001Z</time></trkpt><trkpt lat="43.29939703820512" lon="10.878665500485777"><ele>305.57142857142856</ele><time>2026-03-26T17:34:13.001Z</time></trkpt><trkpt lat="43.299393794079926" lon="10.878755903547855"><ele>303.42857142857144</ele><time>2026-03-26T17:34:30.001Z</time></trkpt><trkpt lat="43.299328491671886" lon="10.878781571491814"><ele>301.28571428571433</ele><time>2026-03-26T17:34:36.001Z</time></trkpt><trkpt lat="43.29927105468532" lon="10.878847511429944"><ele>299.14285714285717</ele><time>2026-03-26T17:34:44.001Z</time></trkpt><trkpt lat="43.299218920438086" lon="10.878919379864012"><ele>297.0</ele><time>2026-03-26T17:34:48.001Z</time></trkpt><trkpt lat="43.29919208258752" lon="10.879000990837568"><ele>297.0</ele><time>2026-03-26T17:34:53.001Z</time></trkpt><trkpt lat="43.29915589407729" lon="10.879081825852426"><ele>297.0</ele><time>2026-03-26T17:34:59.001Z</time></trkpt><trkpt lat="43.29912232251539" lon="10.879154998960685"><ele>297.0</ele><time>2026-03-26T17:35:04.001Z</time></trkpt><trkpt lat="43.29908447111955" lon="10.879226321902692"><ele>297.0</ele><time>2026-03-26T17:35:09.001Z</time></trkpt><trkpt lat="43.29905206562766" lon="10.8793037289501"><ele>297.0</ele><time>2026-03-26T17:35:14.001Z</time></trkpt><trkpt lat="43.299034741971575" lon="10.87940110031584"><ele>297.0</ele><time>2026-03-26T17:35:19Z</time></trkpt><trkpt lat="43.299042342886985" lon="10.879508894061846"><ele>297.0</ele><time>2026-03-26T17:35:24Z</time></trkpt><trkpt lat="43.299075630116135" lon="10.87958349585461"><ele>295.57142857142856</ele><time>2026-03-26T17:35:27Z</time></trkpt><trkpt lat="43.29910064848793" lon="10.879665505127019"><ele>294.14285714285717</ele><time>2026-03-26T17:35:32Z</time></trkpt><trkpt lat="43.2991380754705" lon="10.879751573161442"><ele>292.7142857142857</ele><time>2026-03-26T17:35:59Z</time></trkpt><trkpt lat="43.29919288913317" lon="10.879805260658317"><ele>291.2857142857143</ele><time>2026-03-26T17:36:05Z</time></trkpt><trkpt lat="43.29925403898663" lon="10.879753717503853"><ele>289.8571428571429</ele><time>2026-03-26T17:36:11Z</time></trkpt><trkpt lat="43.2992876723715" lon="10.879658335208804"><ele>288.42857142857144</ele><time>2026-03-26T17:36:16Z</time></trkpt><trkpt lat="43.299313584359325" lon="10.879569226423108"><ele>287.0</ele><time>2026-03-26T17:36:21.001Z</time></trkpt><trkpt lat="43.29932026006822" lon="10.879470973256929"><ele>287.0</ele><time>2026-03-26T17:36:28.001Z</time></trkpt><trkpt lat="43.29930976138452" lon="10.879376202135289"><ele>287.0</ele><time>2026-03-26T17:36:33.001Z</time></trkpt><trkpt lat="43.29930588923954" lon="10.879275468730306"><ele>287.0</ele><time>2026-03-26T17:36:42.001Z</time></trkpt><trkpt lat="43.29929819809918" lon="10.879177412987188"><ele>287.0</ele><time>2026-03-26T17:36:49Z</time></trkpt><trkpt lat="43.29931188555207" lon="10.879082457914707"><ele>287.0</ele><time>2026-03-26T17:36:56Z</time></trkpt><trkpt lat="43.29933739427307" lon="10.878994262091622"><ele>287.0</ele><time>2026-03-26T17:37:04Z</time></trkpt><trkpt lat="43.29940026200173" lon="10.878938942861486"><ele>287.0</ele><time>2026-03-26T17:37:10Z</time></trkpt><trkpt lat="43.29945052413163" lon="10.878883510832097"><ele>288.0</ele><time>2026-03-26T17:37:18Z</time></trkpt><trkpt lat="43.299520450959484" lon="10.878831672593929"><ele>289.0</ele><time>2026-03-26T17:37:26Z</time></trkpt><trkpt lat="43.29957183628597" lon="10.878769928302605"><ele>290.0</ele><time>2026-03-26T17:37:34Z</time></trkpt><trkpt lat="43.299611749868866" lon="10.878702504408592"><ele>291.0</ele><time>2026-03-26T17:37:40Z</time></trkpt><trkpt lat="43.29965241394049" lon="10.878626557464347"><ele>292.0</ele><time>2026-03-26T17:37:46Z</time></trkpt><trkpt lat="43.29970123704566" lon="10.87856212415512"><ele>293.0</ele><time>2026-03-26T17:37:53Z</time></trkpt><trkpt lat="43.299725667936606" lon="10.878472034821405"><ele>294.0</ele><time>2026-03-26T17:37:59Z</time></trkpt><trkpt lat="43.299771262931266" lon="10.878378292212979"><ele>294.0</ele><time>2026-03-26T17:38:05Z</time></trkpt><trkpt lat="43.299766199442715" lon="10.878284045278708"><ele>294.0</ele><time>2026-03-26T17:38:10Z</time></trkpt><trkpt lat="43.29978812136255" lon="10.878184164829769"><ele>294.0</ele><time>2026-03-26T17:38:15Z</time></trkpt><trkpt lat="43.29976590093697" lon="10.878090570550064"><ele>294.0</ele><time>2026-03-26T17:38:25.001Z</time></trkpt><trkpt lat="43.29969338249186" lon="10.878055366150816"><ele>294.0</ele><time>2026-03-26T17:38:29.001Z</time></trkpt><trkpt lat="43.29963561906242" lon="10.878100774310887"><ele>294.0</ele><time>2026-03-26T17:38:33.001Z</time></trkpt><trkpt lat="43.29956370276757" lon="10.87812749283836"><ele>294.0</ele><time>2026-03-26T17:38:42Z</time></trkpt><trkpt lat="43.29950024673048" lon="10.878125714548851"><ele>296.57142857142856</ele><time>2026-03-26T17:38:58Z</time></trkpt><trkpt lat="43.299438241319834" lon="10.878091849165761"><ele>299.1428571428571</ele><time>2026-03-26T17:39:06Z</time></trkpt><trkpt lat="43.29948039149974" lon="10.878017363285787"><ele>301.7142857142857</ele><time>2026-03-26T17:39:13Z</time></trkpt><trkpt lat="43.29953237191202" lon="10.877964947486303"><ele>304.2857142857143</ele><time>2026-03-26T17:39:19Z</time></trkpt><trkpt lat="43.29958798733056" lon="10.877895786954833"><ele>306.85714285714283</ele><time>2026-03-26T17:39:25Z</time></trkpt><trkpt lat="43.299626483406115" lon="10.877822148077666"><ele>309.42857142857144</ele><time>2026-03-26T17:39:30Z</time></trkpt><trkpt lat="43.29964537326594" lon="10.877737903882668"><ele>312.0</ele><time>2026-03-26T17:39:35Z</time></trkpt><trkpt lat="43.299668145034545" lon="10.877640636095352"><ele>311.1666666666667</ele><time>2026-03-26T17:39:41Z</time></trkpt><trkpt lat="43.29970377296025" lon="10.877556963822453"><ele>310.3333333333333</ele><time>2026-03-26T17:39:47Z</time></trkpt><trkpt lat="43.299775840790716" lon="10.877536159055248"><ele>309.5</ele><time>2026-03-26T17:39:56Z</time></trkpt><trkpt lat="43.29984180848542" lon="10.877567901919118"><ele>308.66666666666663</ele><time>2026-03-26T17:40:01Z</time></trkpt><trkpt lat="43.29991658902549" lon="10.877613153786049"><ele>307.8333333333333</ele><time>2026-03-26T17:40:05Z</time></trkpt><trkpt lat="43.299989319717504" lon="10.877651926605335"><ele>307.0</ele><time>2026-03-26T17:40:09Z</time></trkpt><trkpt lat="43.300003095777384" lon="10.877766336639265"><ele>305.1428571428571</ele><time>2026-03-26T17:40:13Z</time></trkpt><trkpt lat="43.30001762451798" lon="10.877865799669529"><ele>303.2857142857143</ele><time>2026-03-26T17:40:20Z</time></trkpt><trkpt lat="43.3000147514852" lon="10.87795478230473"><ele>301.42857142857144</ele><time>2026-03-26T17:40:26Z</time></trkpt><trkpt lat="43.30002928583753" lon="10.878039124731679"><ele>299.57142857142856</ele><time>2026-03-26T17:40:31Z</time></trkpt><trkpt lat="43.30007649675439" lon="10.87813105700663"><ele>297.7142857142857</ele><time>2026-03-26T17:40:36Z</time></trkpt><trkpt lat="43.3001041319977" lon="10.878215418119822"><ele>295.85714285714283</ele><time>2026-03-26T17:40:41Z</time></trkpt><trkpt lat="43.30015000544664" lon="10.878275567097566"><ele>294.0</ele><time>2026-03-26T17:40:46Z</time></trkpt><trkpt lat="43.30020254549047" lon="10.878206288002294"><ele>294.0</ele><time>2026-03-26T17:40:50Z</time></trkpt><trkpt lat="43.300189286846184" lon="10.878119604054135"><ele>294.0</ele><time>2026-03-26T17:40:57Z</time></trkpt><trkpt lat="43.3001664066716" lon="10.878037036535824"><ele>294.0</ele><time>2026-03-26T17:41:03Z</time></trkpt><trkpt lat="43.300153851340475" lon="10.877948233281048"><ele>294.0</ele><time>2026-03-26T17:41:09Z</time></trkpt><trkpt lat="43.3001438204198" lon="10.877851845294085"><ele>294.0</ele><time>2026-03-26T17:41:15Z</time></trkpt><trkpt lat="43.300160700786975" lon="10.877766416039504"><ele>294.0</ele><time>2026-03-26T17:41:27Z</time></trkpt><trkpt lat="43.30016379381853" lon="10.877673165277569"><ele>294.0</ele><time>2026-03-26T17:41:37Z</time></trkpt><trkpt lat="43.30016893247341" lon="10.877584642043637"><ele>295.85714285714283</ele><time>2026-03-26T17:41:44Z</time></trkpt><trkpt lat="43.300133502962424" lon="10.877512897488137"><ele>297.7142857142857</ele><time>2026-03-26T17:41:50Z</time></trkpt><trkpt lat="43.30006077057471" lon="10.877459726518401"><ele>299.57142857142856</ele><time>2026-03-26T17:41:56Z</time></trkpt><trkpt lat="43.30002845965979" lon="10.87736194075044"><ele>301.42857142857144</ele><time>2026-03-26T17:42:02Z</time></trkpt><trkpt lat="43.299994254881625" lon="10.87728786264004"><ele>303.2857142857143</ele><time>2026-03-26T17:42:07Z</time></trkpt><trkpt lat="43.2999275110353" lon="10.877302519611893"><ele>305.1428571428571</ele><time>2026-03-26T17:42:10Z</time></trkpt><trkpt lat="43.299857951944254" lon="10.87726074254123"><ele>307.0</ele><time>2026-03-26T17:42:14Z</time></trkpt><trkpt lat="43.299820120460836" lon="10.877180724517574"><ele>306.99999999999994</ele><time>2026-03-26T17:42:18.999Z</time></trkpt><trkpt lat="43.29981742513931" lon="10.877093707353545"><ele>307.0</ele><time>2026-03-26T17:42:23.999Z</time></trkpt><trkpt lat="43.29983631989913" lon="10.877009548651767"><ele>307.0</ele><time>2026-03-26T17:42:28.999Z</time></trkpt><trkpt lat="43.299845564093246" lon="10.876918524761527"><ele>307.0</ele><time>2026-03-26T17:42:34.999Z</time></trkpt><trkpt lat="43.29986646978254" lon="10.87683298974563"><ele>307.0</ele><time>2026-03-26T17:42:41Z</time></trkpt><trkpt lat="43.29990440419394" lon="10.876762514468705"><ele>306.99999999999994</ele><time>2026-03-26T17:42:46Z</time></trkpt><trkpt lat="43.29995020595117" lon="10.876685530803819"><ele>307.0</ele><time>2026-03-26T17:42:52Z</time></trkpt><trkpt lat="43.29990538086192" lon="10.876605681527057"><ele>308.99999999999994</ele><time>2026-03-26T17:43:05Z</time></trkpt><trkpt lat="43.299836479271434" lon="10.876580962153168"><ele>311.0</ele><time>2026-03-26T17:43:09Z</time></trkpt><trkpt lat="43.29987327376121" lon="10.876493013266131"><ele>313.0</ele><time>2026-03-26T17:43:24Z</time></trkpt><trkpt lat="43.299930940158305" lon="10.876439346496745"><ele>315.0</ele><time>2026-03-26T17:43:29Z</time></trkpt><trkpt lat="43.299956054634485" lon="10.876348929986118"><ele>317.0</ele><time>2026-03-26T17:43:34Z</time></trkpt><trkpt lat="43.299958563092886" lon="10.876258750987258"><ele>318.99999999999994</ele><time>2026-03-26T17:43:41Z</time></trkpt><trkpt lat="43.29996182756142" lon="10.87616545938685"><ele>321.0</ele><time>2026-03-26T17:43:47Z</time></trkpt><trkpt lat="43.299929873445" lon="10.876083039296343"><ele>321.0</ele><time>2026-03-26T17:43:54Z</time></trkpt><trkpt lat="43.299853284997006" lon="10.87610915723276"><ele>321.0</ele><time>2026-03-26T17:44:10.999Z</time></trkpt><trkpt lat="43.29979495085882" lon="10.87615598635822"><ele>321.0</ele><time>2026-03-26T17:44:15.999Z</time></trkpt><trkpt lat="43.29975991130815" lon="10.876273820073543"><ele>321.0</ele><time>2026-03-26T17:44:20.999Z</time></trkpt><trkpt lat="43.29973594066641" lon="10.876361704297171"><ele>321.0</ele><time>2026-03-26T17:44:28.999Z</time></trkpt><trkpt lat="43.299680908654096" lon="10.876416855927701"><ele>321.0</ele><time>2026-03-26T17:44:33.999Z</time></trkpt><trkpt lat="43.29960779196496" lon="10.876443867885158"><ele>323.85714285714283</ele><time>2026-03-26T17:44:38.999Z</time></trkpt><trkpt lat="43.29954463878999" lon="10.87642458461864"><ele>326.7142857142857</ele><time>2026-03-26T17:44:45Z</time></trkpt><trkpt lat="43.29948043436415" lon="10.876399965358555"><ele>329.57142857142856</ele><time>2026-03-26T17:44:51Z</time></trkpt><trkpt lat="43.299436386622226" lon="10.876468948953981"><ele>332.42857142857144</ele><time>2026-03-26T17:44:57Z</time></trkpt><trkpt lat="43.299484319178" lon="10.876532367686924"><ele>335.2857142857143</ele><time>2026-03-26T17:45:02Z</time></trkpt><trkpt lat="43.29950972537927" lon="10.876612311117153"><ele>338.1428571428571</ele><time>2026-03-26T17:45:08Z</time></trkpt><trkpt lat="43.29944329140423" lon="10.876591914038995"><ele>341.0</ele><time>2026-03-26T17:45:16Z</time></trkpt><trkpt lat="43.29939273969183" lon="10.876539818134916"><ele>341.0</ele><time>2026-03-26T17:45:22Z</time></trkpt><trkpt lat="43.299319867865734" lon="10.87649834008843"><ele>341.0</ele><time>2026-03-26T17:45:29Z</time></trkpt><trkpt lat="43.29925894781617" lon="10.876449544063048"><ele>341.0</ele><time>2026-03-26T17:45:35Z</time></trkpt><trkpt lat="43.299187948363276" lon="10.876441505824795"><ele>341.0</ele><time>2026-03-26T17:45:41Z</time></trkpt><trkpt lat="43.299141964731426" lon="10.87655346667553"><ele>341.0</ele><time>2026-03-26T17:45:48Z</time></trkpt><trkpt lat="43.29911477945584" lon="10.87663250696903"><ele>341.0</ele><time>2026-03-26T17:45:52Z</time></trkpt><trkpt lat="43.29905934859622" lon="10.876691220842021"><ele>341.0</ele><time>2026-03-26T17:45:58Z</time></trkpt><trkpt lat="43.298992206912445" lon="10.876687828444222"><ele>341.0</ele><time>2026-03-26T17:46:04.999Z</time></trkpt><trkpt lat="43.29892926234926" lon="10.8766479929802"><ele>341.0</ele><time>2026-03-26T17:46:14.999Z</time></trkpt><trkpt lat="43.298878358729674" lon="10.876592446750836"><ele>341.0</ele><time>2026-03-26T17:46:24.999Z</time></trkpt><trkpt lat="43.29886666361219" lon="10.876495204831704"><ele>341.0</ele><time>2026-03-26T17:46:31.999Z</time></trkpt><trkpt lat="43.298927490536514" lon="10.876468677752296"><ele>341.0</ele><time>2026-03-26T17:46:39.999Z</time></trkpt><trkpt lat="43.298997280495115" lon="10.876425043236493"><ele>341.0</ele><time>2026-03-26T17:46:44.999Z</time></trkpt><trkpt lat="43.299047233377486" lon="10.876370982446893"><ele>341.0</ele><time>2026-03-26T17:46:49Z</time></trkpt><trkpt lat="43.29910988950803" lon="10.87633600437533"><ele>341.0</ele><time>2026-03-26T17:46:54Z</time></trkpt><trkpt lat="43.29915146257336" lon="10.87625644420668"><ele>341.0</ele><time>2026-03-26T17:47:00Z</time></trkpt><trkpt lat="43.29918082478711" lon="10.87617340066951"><ele>341.0</ele><time>2026-03-26T17:47:13Z</time></trkpt><trkpt lat="43.29923535730369" lon="10.876114892658686"><ele>341.0</ele><time>2026-03-26T17:47:22Z</time></trkpt><trkpt lat="43.299291561293664" lon="10.876060046195427"><ele>341.0</ele><time>2026-03-26T17:47:44Z</time></trkpt><trkpt lat="43.299316240878895" lon="10.875973078638204"><ele>341.0</ele><time>2026-03-26T17:48:04Z</time></trkpt><trkpt lat="43.299381185444965" lon="10.87592662515387"><ele>341.0</ele><time>2026-03-26T17:48:07.999Z</time></trkpt><trkpt lat="43.29944958807766" lon="10.875863825441757"><ele>343.2857142857143</ele><time>2026-03-26T17:48:13.999Z</time></trkpt><trkpt lat="43.299491641466865" lon="10.875782590293513"><ele>345.57142857142856</ele><time>2026-03-26T17:48:18.999Z</time></trkpt><trkpt lat="43.29950440299551" lon="10.875691763889478"><ele>347.8571428571429</ele><time>2026-03-26T17:48:22.999Z</time></trkpt><trkpt lat="43.29947209890718" lon="10.875601806798905"><ele>350.1428571428571</ele><time>2026-03-26T17:48:26.999Z</time></trkpt><trkpt lat="43.29945341823208" lon="10.875518222842752"><ele>352.42857142857144</ele><time>2026-03-26T17:48:30.999Z</time></trkpt><trkpt lat="43.29942230951525" lon="10.87542219552907"><ele>354.7142857142857</ele><time>2026-03-26T17:48:35.999Z</time></trkpt><trkpt lat="43.29943356322244" lon="10.875319249875677"><ele>357.0</ele><time>2026-03-26T17:48:41.999Z</time></trkpt><trkpt lat="43.29941707518646" lon="10.875225093723307"><ele>357.0</ele><time>2026-03-26T17:48:46.999Z</time></trkpt><trkpt lat="43.29934667973318" lon="10.87521184298172"><ele>357.0</ele><time>2026-03-26T17:48:52.999Z</time></trkpt><trkpt lat="43.299284079939206" lon="10.875167352903489"><ele>357.0</ele><time>2026-03-26T17:48:58Z</time></trkpt><trkpt lat="43.29932265412869" lon="10.875096974132235"><ele>357.0</ele><time>2026-03-26T17:49:04Z</time></trkpt><trkpt lat="43.29927443529771" lon="10.87502409730882"><ele>357.0</ele><time>2026-03-26T17:49:09Z</time></trkpt><trkpt lat="43.29920533613867" lon="10.875044092909686"><ele>357.0</ele><time>2026-03-26T17:49:13Z</time></trkpt><trkpt lat="43.29914851277042" lon="10.875099353519413"><ele>357.0</ele><time>2026-03-26T17:49:18Z</time></trkpt><trkpt lat="43.29909294336645" lon="10.875158217174135"><ele>357.0</ele><time>2026-03-26T17:49:24Z</time></trkpt><trkpt lat="43.29905517728514" lon="10.875250303995545"><ele>357.0</ele><time>2026-03-26T17:49:30Z</time></trkpt><trkpt lat="43.299064418869804" lon="10.875342049335286"><ele>357.0</ele><time>2026-03-26T17:49:36Z</time></trkpt><trkpt lat="43.299133939706465" lon="10.875368769388272"><ele>357.0</ele><time>2026-03-26T17:49:40Z</time></trkpt><trkpt lat="43.29920120815321" lon="10.875404491510029"><ele>357.0</ele><time>2026-03-26T17:49:45Z</time></trkpt><trkpt lat="43.2992310701573" lon="10.875489355493004"><ele>357.0</ele><time>2026-03-26T17:49:50Z</time></trkpt><trkpt lat="43.29924619876012" lon="10.875584348353259"><ele>357.0</ele><time>2026-03-26T17:49:55Z</time></trkpt><trkpt lat="43.29929732535902" lon="10.875649495486057"><ele>357.0</ele><time>2026-03-26T17:50:00Z</time></trkpt><trkpt lat="43.2993602044176" lon="10.875713269069006"><ele>357.0</ele><time>2026-03-26T17:50:05Z</time></trkpt><trkpt lat="43.299387468412675" lon="10.875810117103448"><ele>357.0</ele><time>2026-03-26T17:50:10Z</time></trkpt><trkpt lat="43.29932571858475" lon="10.875779623175855"><ele>357.0</ele><time>2026-03-26T17:50:20Z</time></trkpt><trkpt lat="43.299289927858204" lon="10.875699576000567"><ele>357.0</ele><time>2026-03-26T17:50:28Z</time></trkpt><trkpt lat="43.299234571194575" lon="10.875643472847333"><ele>357.0</ele><time>2026-03-26T17:50:34Z</time></trkpt><trkpt lat="43.29916982171203" lon="10.875585341962253"><ele>357.0</ele><time>2026-03-26T17:50:40Z</time></trkpt><trkpt lat="43.29910906151366" lon="10.875527456463114"><ele>357.0</ele><time>2026-03-26T17:50:45Z</time></trkpt><trkpt lat="43.299044805439124" lon="10.875544041536646"><ele>357.0</ele><time>2026-03-26T17:50:50Z</time></trkpt><trkpt lat="43.29906520406329" lon="10.87563852623214"><ele>357.0</ele><time>2026-03-26T17:50:55Z</time></trkpt><trkpt lat="43.29910403979393" lon="10.875711217962495"><ele>357.0</ele><time>2026-03-26T17:51:05Z</time></trkpt><trkpt lat="43.29916822869273" lon="10.875705913247225"><ele>357.0</ele><time>2026-03-26T17:51:46.999Z</time></trkpt><trkpt lat="43.29922031477424" lon="10.875775006197934"><ele>357.0</ele><time>2026-03-26T17:52:26.999Z</time></trkpt><trkpt lat="43.299277552650906" lon="10.875833191771575"><ele>357.0</ele><time>2026-03-26T17:52:30Z</time></trkpt><trkpt lat="43.29921091194194" lon="10.87586078536917"><ele>357.0</ele><time>2026-03-26T17:52:38Z</time></trkpt><trkpt lat="43.299147367133685" lon="10.875793421262292"><ele>357.0</ele><time>2026-03-26T17:52:46Z</time></trkpt><trkpt lat="43.29907714336864" lon="10.875754505616971"><ele>357.0</ele><time>2026-03-26T17:52:51Z</time></trkpt><trkpt lat="43.2990109778499" lon="10.875740507598232"><ele>357.0</ele><time>2026-03-26T17:52:56Z</time></trkpt></trkseg></trk></gpx>